createdAt,value
2018-02-12T00:00:46.235Z,94.7
2018-02-12T00:01:46.896Z,95.1
2018-02-12T00:02:47.555Z,94.9
2018-02-12T00:03:48.214Z,95.1
2018-02-12T00:04:48.872Z,95.4
2018-02-12T00:05:49.530Z,95.8
2018-02-12T00:06:50.190Z,96.1
2018-02-12T00:07:50.848Z,96.8
2018-02-12T00:08:51.506Z,96.7
2018-02-12T00:09:52.165Z,96.6
2018-02-12T00:10:52.824Z,96.9
2018-02-12T00:11:53.484Z,97.4
2018-02-12T00:12:54.144Z,97.3
2018-02-12T00:13:54.805Z,97.5
2018-02-12T00:14:55.460Z,98.2
2018-02-12T00:15:56.117Z,97.8
2018-02-12T00:16:56.775Z,98.1
2018-02-12T00:17:57.432Z,99.0
2018-02-12T00:18:58.092Z,98.8
2018-02-12T00:19:58.749Z,98.2
2018-02-12T00:20:59.408Z,98.4
2018-02-12T00:22:00.064Z,98.2
2018-02-12T00:23:00.721Z,98.2
2018-02-12T00:24:01.430Z,99.1
2018-02-12T00:25:02.089Z,99.0
2018-02-12T00:26:02.749Z,98.8
2018-02-12T00:27:03.411Z,98.8
2018-02-12T00:28:04.070Z,98.8
2018-02-12T00:29:04.730Z,98.8
2018-02-12T00:30:05.388Z,98.9
2018-02-12T00:31:06.046Z,98.7
2018-02-12T00:32:06.704Z,99.0
2018-02-12T00:33:07.362Z,98.9
2018-02-12T00:34:08.020Z,98.9
2018-02-12T00:35:08.678Z,98.9
2018-02-12T00:36:09.336Z,98.8
2018-02-12T00:37:09.996Z,99.1
2018-02-12T00:38:10.655Z,98.9
2018-02-12T00:39:11.314Z,98.9
2018-02-12T00:40:11.973Z,98.8
2018-02-12T00:41:12.631Z,99.2
2018-02-12T00:42:13.290Z,99.2
2018-02-12T00:43:13.948Z,98.9
2018-02-12T00:44:14.656Z,98.9
2018-02-12T00:45:15.315Z,99.1
2018-02-12T00:46:15.973Z,99.2
2018-02-12T00:47:16.630Z,99.4
2018-02-12T00:48:17.287Z,99.5
2018-02-12T00:49:17.947Z,99.1
2018-02-12T00:50:18.646Z,99.4
2018-02-12T00:51:19.304Z,99.5
2018-02-12T00:52:19.954Z,99.4
2018-02-12T00:53:20.611Z,99.4
2018-02-12T00:54:21.272Z,99.4
2018-02-12T00:55:21.930Z,98.8
2018-02-12T00:56:22.590Z,98.4
2018-02-12T00:57:23.248Z,98.8
2018-02-12T00:58:23.945Z,98.6
2018-02-12T00:59:24.606Z,99.0
2018-02-12T01:00:25.266Z,98.3
2018-02-12T01:01:25.928Z,98.1
2018-02-12T01:02:26.624Z,98.2
2018-02-12T01:03:27.284Z,98.5
2018-02-12T01:04:27.943Z,98.2
2018-02-12T01:05:28.603Z,98.5
2018-02-12T01:06:29.304Z,98.1
2018-02-12T01:07:29.957Z,97.6
2018-02-12T01:08:30.615Z,97.7
2018-02-12T01:09:31.273Z,97.8
2018-02-12T01:10:31.931Z,97.8
2018-02-12T01:11:32.590Z,98.1
2018-02-12T01:12:33.248Z,97.8
2018-02-12T01:13:33.907Z,98.0
2018-02-12T01:14:34.565Z,97.4
2018-02-12T01:15:35.225Z,97.6
2018-02-12T01:16:35.883Z,97.8
2018-02-12T01:17:36.543Z,97.7
2018-02-12T01:18:37.202Z,97.3
2018-02-12T01:19:37.861Z,97.3
2018-02-12T01:20:38.518Z,97.4
2018-02-12T01:21:39.180Z,96.7
2018-02-12T01:22:39.835Z,96.9
2018-02-12T01:23:40.493Z,96.8
2018-02-12T01:24:41.150Z,97.0
2018-02-12T01:25:41.810Z,97.0
2018-02-12T01:26:42.457Z,96.4
2018-02-12T01:27:43.116Z,96.5
2018-02-12T01:28:43.775Z,96.5
2018-02-12T01:29:44.433Z,96.5
2018-02-12T01:30:45.091Z,96.3
2018-02-12T01:31:45.748Z,95.9
2018-02-12T01:32:46.407Z,95.9
2018-02-12T01:33:47.103Z,95.9
2018-02-12T01:34:47.761Z,95.9
2018-02-12T01:35:48.418Z,95.5
2018-02-12T01:36:49.076Z,95.5
2018-02-12T01:37:49.734Z,94.7
2018-02-12T01:38:50.392Z,95.1
2018-02-12T01:39:51.053Z,94.9
2018-02-12T01:40:51.709Z,94.6
2018-02-12T01:41:52.367Z,94.5
2018-02-12T01:42:53.025Z,95.1
2018-02-12T01:43:53.683Z,94.2
2018-02-12T01:44:54.341Z,94.3
2018-02-12T01:45:54.999Z,94.0
2018-02-12T01:46:55.657Z,93.6
2018-02-12T01:47:56.314Z,93.8
2018-02-12T01:48:56.971Z,92.5
2018-02-12T01:49:57.630Z,93.2
2018-02-12T01:50:58.289Z,92.5
2018-02-12T01:51:58.947Z,92.7
2018-02-12T01:52:59.604Z,92.9
2018-02-12T01:54:00.273Z,92.8
2018-02-12T01:55:00.926Z,91.8
2018-02-12T01:56:01.586Z,92.2
2018-02-12T01:57:02.246Z,91.9
2018-02-12T01:58:02.945Z,91.9
2018-02-12T01:59:03.604Z,92.2
2018-02-12T02:00:04.262Z,91.7
2018-02-12T02:01:04.921Z,92.2
2018-02-12T02:02:05.579Z,91.9
2018-02-12T02:03:06.237Z,91.9
2018-02-12T02:04:06.896Z,91.9
2018-02-12T02:05:07.555Z,91.8
2018-02-12T02:06:08.213Z,91.9
2018-02-12T02:07:08.872Z,92.8
2018-02-12T02:08:09.534Z,93.7
2018-02-12T02:09:10.227Z,95.1
2018-02-12T02:10:10.886Z,95.7
2018-02-12T02:11:11.546Z,95.8
2018-02-12T02:12:12.242Z,97.0
2018-02-12T02:13:12.901Z,97.3
2018-02-12T02:14:13.559Z,97.6
2018-02-12T02:15:14.218Z,97.9
2018-02-12T02:16:14.878Z,98.5
2018-02-12T02:17:15.537Z,98.7
2018-02-12T02:18:16.238Z,98.7
2018-02-12T02:19:16.901Z,99.1
2018-02-12T02:20:17.555Z,99.5
2018-02-12T02:21:18.214Z,99.5
2018-02-12T02:22:18.873Z,100.0
2018-02-12T02:23:19.532Z,100.0
2018-02-12T02:24:20.191Z,99.9
2018-02-12T02:25:20.851Z,100.0
2018-02-12T02:26:21.509Z,100.0
2018-02-12T02:27:22.169Z,100.0
2018-02-12T02:28:22.829Z,100.0
2018-02-12T02:29:23.489Z,100.0
2018-02-12T02:30:24.152Z,100.0
2018-02-12T02:31:24.850Z,100.0
2018-02-12T02:32:25.510Z,100.0
2018-02-12T02:33:26.171Z,100.0
2018-02-12T02:34:26.831Z,100.0
2018-02-12T02:35:27.534Z,100.0
2018-02-12T02:36:28.148Z,100.0
2018-02-12T02:37:28.806Z,100.0
2018-02-12T02:38:29.467Z,100.0
2018-02-12T02:39:30.128Z,100.0
2018-02-12T02:40:30.784Z,100.0
2018-02-12T02:41:31.445Z,100.0
2018-02-12T02:42:32.105Z,100.0
2018-02-12T02:43:32.765Z,100.0
2018-02-12T02:44:33.423Z,100.0
2018-02-12T02:45:34.082Z,100.0
2018-02-12T02:46:34.740Z,99.6
2018-02-12T02:47:35.398Z,99.9
2018-02-12T02:48:36.056Z,99.8
2018-02-12T02:49:36.713Z,99.9
2018-02-12T02:50:37.372Z,99.4
2018-02-12T02:51:38.030Z,99.5
2018-02-12T02:52:38.689Z,99.8
2018-02-12T02:53:39.351Z,100.0
2018-02-12T02:54:40.008Z,100.0
2018-02-12T02:55:40.718Z,100.0
2018-02-12T02:56:41.377Z,100.0
2018-02-12T02:57:42.035Z,100.0
2018-02-12T02:58:42.697Z,100.0
2018-02-12T02:59:43.356Z,100.0
2018-02-12T03:00:44.016Z,100.0
2018-02-12T03:01:44.677Z,100.0
2018-02-12T03:02:45.335Z,100.0
2018-02-12T03:03:45.994Z,100.0
2018-02-12T03:04:46.654Z,100.0
2018-02-12T03:05:47.312Z,100.0
2018-02-12T03:06:47.972Z,100.0
2018-02-12T03:07:48.630Z,100.0
2018-02-12T03:08:49.290Z,100.0
2018-02-12T03:09:49.948Z,100.0
2018-02-12T03:10:50.610Z,100.0
2018-02-12T03:11:51.276Z,100.0
2018-02-12T03:12:51.932Z,100.0
2018-02-12T03:13:52.590Z,100.0
2018-02-12T03:14:53.249Z,100.0
2018-02-12T03:15:53.908Z,100.0
2018-02-12T03:16:54.605Z,100.0
2018-02-12T03:17:55.264Z,100.0
2018-02-12T03:18:55.923Z,100.0
2018-02-12T03:19:56.584Z,100.0
2018-02-12T03:20:57.243Z,100.0
2018-02-12T03:21:57.903Z,100.0
2018-02-12T03:22:58.563Z,100.0
2018-02-12T03:23:59.222Z,100.0
2018-02-12T03:24:59.881Z,100.0
2018-02-12T03:26:00.539Z,99.7
2018-02-12T03:27:01.198Z,99.6
2018-02-12T03:28:01.856Z,99.6
2018-02-12T03:29:02.515Z,99.7
2018-02-12T03:30:03.174Z,99.9
2018-02-12T03:31:03.831Z,99.2
2018-02-12T03:32:04.489Z,99.4
2018-02-12T03:33:05.149Z,98.8
2018-02-12T03:34:05.809Z,99.3
2018-02-12T03:35:06.470Z,99.3
2018-02-12T03:36:07.279Z,99.4
2018-02-12T03:37:07.939Z,99.2
2018-02-12T03:38:08.596Z,98.3
2018-02-12T03:39:09.255Z,97.8
2018-02-12T03:40:09.915Z,98.2
2018-02-12T03:41:10.573Z,98.1
2018-02-12T03:42:11.231Z,97.6
2018-02-12T03:43:11.889Z,97.6
2018-02-12T03:44:12.547Z,96.7
2018-02-12T03:45:13.205Z,96.7
2018-02-12T03:46:13.864Z,96.5
2018-02-12T03:47:14.521Z,97.0
2018-02-12T03:48:15.181Z,96.8
2018-02-12T03:49:15.838Z,96.5
2018-02-12T03:50:16.499Z,95.8
2018-02-12T03:51:17.167Z,95.9
2018-02-12T03:52:17.820Z,96.1
2018-02-12T03:53:18.480Z,96.0
2018-02-12T03:54:19.137Z,96.2
2018-02-12T03:55:19.797Z,95.9
2018-02-12T03:56:20.455Z,95.6
2018-02-12T03:57:21.114Z,94.7
2018-02-12T03:58:21.771Z,94.5
2018-02-12T03:59:22.470Z,94.9
2018-02-12T04:00:23.128Z,94.9
2018-02-12T04:01:23.825Z,94.5
2018-02-12T04:02:24.483Z,94.9
2018-02-12T04:03:25.142Z,94.6
2018-02-12T04:04:25.799Z,94.7
2018-02-12T04:05:26.485Z,94.8
2018-02-12T04:06:27.113Z,95.4
2018-02-12T04:07:27.771Z,95.6
2018-02-12T04:08:28.429Z,95.3
2018-02-12T04:09:29.087Z,95.9
2018-02-12T04:10:29.745Z,95.9
2018-02-12T04:11:30.403Z,95.8
2018-02-12T04:12:31.062Z,96.0
2018-02-12T04:13:31.757Z,95.8
2018-02-12T04:14:32.416Z,96.2
2018-02-12T04:15:33.074Z,95.8
2018-02-12T04:16:33.734Z,96.9
2018-02-12T04:17:34.389Z,96.4
2018-02-12T04:18:35.047Z,96.4
2018-02-12T04:19:35.704Z,96.5
2018-02-12T04:20:36.363Z,96.4
2018-02-12T04:21:37.022Z,96.1
2018-02-12T04:22:37.719Z,96.0
2018-02-12T04:23:38.452Z,96.0
2018-02-12T04:24:39.111Z,95.6
2018-02-12T04:25:39.770Z,96.0
2018-02-12T04:26:40.428Z,96.1
2018-02-12T04:27:41.087Z,96.0
2018-02-12T04:28:41.744Z,96.1
2018-02-12T04:29:42.405Z,96.1
2018-02-12T04:30:43.061Z,95.8
2018-02-12T04:31:43.718Z,95.9
2018-02-12T04:32:44.378Z,95.1
2018-02-12T04:33:45.071Z,95.5
2018-02-12T04:34:45.729Z,95.4
2018-02-12T04:35:46.388Z,95.2
2018-02-12T04:36:47.048Z,95.1
2018-02-12T04:37:47.702Z,95.2
2018-02-12T04:38:48.361Z,96.1
2018-02-12T04:39:49.019Z,96.1
2018-02-12T04:40:49.678Z,95.1
2018-02-12T04:41:50.338Z,95.3
2018-02-12T04:42:50.997Z,95.8
2018-02-12T04:43:51.655Z,95.6
2018-02-12T04:44:52.314Z,95.4
2018-02-12T04:45:52.972Z,94.9
2018-02-12T04:46:53.630Z,95.0
2018-02-12T04:47:54.287Z,95.3
2018-02-12T04:48:54.947Z,96.1
2018-02-12T04:49:55.603Z,95.8
2018-02-12T04:50:56.261Z,95.7
2018-02-12T04:51:56.918Z,96.0
2018-02-12T04:52:57.576Z,95.6
2018-02-12T04:53:58.232Z,96.3
2018-02-12T04:54:58.890Z,96.3
2018-02-12T04:55:59.548Z,96.0
2018-02-12T04:57:00.206Z,96.1
2018-02-12T04:58:00.863Z,96.1
2018-02-12T04:59:01.522Z,96.8
2018-02-12T05:00:02.182Z,96.6
2018-02-12T05:01:02.881Z,96.4
2018-02-12T05:02:03.544Z,96.7
2018-02-12T05:03:04.199Z,96.0
2018-02-12T05:04:04.858Z,96.1
2018-02-12T05:05:05.517Z,95.9
2018-02-12T05:06:06.174Z,96.1
2018-02-12T05:07:06.831Z,96.3
2018-02-12T05:08:07.489Z,95.8
2018-02-12T05:09:08.146Z,96.0
2018-02-12T05:10:08.803Z,96.4
2018-02-12T05:11:09.460Z,96.2
2018-02-12T05:12:10.118Z,95.5
2018-02-12T05:13:10.775Z,96.1
2018-02-12T05:14:11.433Z,96.2
2018-02-12T05:15:12.092Z,95.1
2018-02-12T05:16:12.746Z,95.0
2018-02-12T05:17:13.404Z,95.3
2018-02-12T05:18:14.061Z,95.2
2018-02-12T05:19:14.720Z,95.1
2018-02-12T05:20:15.381Z,95.2
2018-02-12T05:21:16.039Z,94.8
2018-02-12T05:22:16.696Z,95.1
2018-02-12T05:23:17.356Z,94.6
2018-02-12T05:24:18.013Z,94.7
2018-02-12T05:25:18.671Z,94.9
2018-02-12T05:26:19.328Z,95.1
2018-02-12T05:27:19.988Z,95.0
2018-02-12T05:28:20.645Z,94.5
2018-02-12T05:29:21.303Z,94.6
2018-02-12T05:30:21.960Z,95.0
2018-02-12T05:31:22.617Z,94.8
2018-02-12T05:32:23.275Z,95.1
2018-02-12T05:33:23.932Z,94.8
2018-02-12T05:34:24.593Z,94.8
2018-02-12T05:35:25.247Z,94.9
2018-02-12T05:36:25.907Z,94.6
2018-02-12T05:37:26.567Z,95.1
2018-02-12T05:38:27.226Z,94.8
2018-02-12T05:39:27.885Z,94.8
2018-02-12T05:40:28.543Z,95.0
2018-02-12T05:41:29.202Z,94.7
2018-02-12T05:42:29.858Z,94.9
2018-02-12T05:43:30.516Z,94.8
2018-02-12T05:44:31.175Z,95.0
2018-02-12T05:45:31.831Z,95.0
2018-02-12T05:46:32.488Z,94.3
2018-02-12T05:47:33.149Z,95.0
2018-02-12T05:48:33.805Z,94.1
2018-02-12T05:49:34.464Z,94.3
2018-02-12T05:50:35.123Z,94.4
2018-02-12T05:51:35.782Z,94.1
2018-02-12T05:52:36.444Z,94.0
2018-02-12T05:53:37.135Z,93.5
2018-02-12T05:54:37.791Z,93.2
2018-02-12T05:55:38.451Z,93.2
2018-02-12T05:56:39.107Z,93.2
2018-02-12T05:57:39.765Z,93.3
2018-02-12T05:58:40.422Z,93.7
2018-02-12T05:59:41.080Z,93.7
2018-02-12T06:00:41.737Z,93.2
2018-02-12T06:01:42.432Z,93.3
2018-02-12T06:02:43.089Z,93.4
2018-02-12T06:03:43.750Z,93.4
2018-02-12T06:04:44.443Z,93.6
2018-02-12T06:05:45.101Z,93.3
2018-02-12T06:06:45.758Z,93.2
2018-02-12T06:07:46.416Z,93.6
2018-02-12T06:08:47.072Z,93.1
2018-02-12T06:09:47.728Z,93.2
2018-02-12T06:10:48.392Z,92.9
2018-02-12T06:11:49.043Z,93.7
2018-02-12T06:12:49.700Z,92.7
2018-02-12T06:13:50.358Z,92.7
2018-02-12T06:14:51.017Z,92.3
2018-02-12T06:15:51.677Z,92.7
2018-02-12T06:16:52.339Z,92.1
2018-02-12T06:17:52.998Z,91.9
2018-02-12T06:18:53.658Z,92.0
2018-02-12T06:19:54.319Z,92.4
2018-02-12T06:20:55.014Z,92.0
2018-02-12T06:21:55.672Z,92.2
2018-02-12T06:22:56.331Z,91.9
2018-02-12T06:23:56.989Z,91.7
2018-02-12T06:24:57.649Z,91.2
2018-02-12T06:25:58.308Z,91.9
2018-02-12T06:26:58.966Z,91.8
2018-02-12T06:27:59.626Z,91.6
2018-02-12T06:29:00.284Z,91.3
2018-02-12T06:30:00.942Z,91.4
2018-02-12T06:31:01.603Z,90.8
2018-02-12T06:32:02.263Z,91.2
2018-02-12T06:33:02.923Z,90.7
2018-02-12T06:34:03.585Z,90.3
2018-02-12T06:35:04.245Z,90.2
2018-02-12T06:36:04.907Z,90.4
2018-02-12T06:37:05.565Z,90.3
2018-02-12T06:38:06.225Z,90.2
2018-02-12T06:39:06.886Z,90.7
2018-02-12T06:40:07.546Z,90.5
2018-02-12T06:41:08.207Z,90.3
2018-02-12T06:42:08.905Z,90.3
2018-02-12T06:43:09.563Z,90.5
2018-02-12T06:44:10.223Z,90.5
2018-02-12T06:45:10.883Z,89.8
2018-02-12T06:46:11.545Z,89.9
2018-02-12T06:47:12.207Z,89.3
2018-02-12T06:48:12.867Z,89.1
2018-02-12T06:49:13.527Z,89.3
2018-02-12T06:50:14.187Z,89.3
2018-02-12T06:51:14.848Z,89.0
2018-02-12T06:52:15.510Z,89.0
2018-02-12T06:53:16.169Z,88.8
2018-02-12T06:54:16.828Z,88.2
2018-02-12T06:55:17.487Z,87.8
2018-02-12T06:56:18.147Z,87.9
2018-02-12T06:57:18.811Z,87.6
2018-02-12T06:58:19.479Z,87.7
2018-02-12T06:59:20.135Z,87.5
2018-02-12T07:00:20.798Z,87.5
2018-02-12T07:01:21.459Z,87.6
2018-02-12T07:02:22.120Z,87.5
2018-02-12T07:03:22.781Z,87.5
2018-02-12T07:04:23.442Z,87.2
2018-02-12T07:05:24.105Z,86.5
2018-02-12T07:06:24.769Z,86.2
2018-02-12T07:07:25.431Z,86.4
2018-02-12T07:08:26.092Z,86.6
2018-02-12T07:09:26.753Z,86.3
2018-02-12T07:10:27.415Z,86.5
2018-02-12T07:11:28.079Z,86.5
2018-02-12T07:12:28.741Z,86.2
2018-02-12T07:13:29.404Z,86.1
2018-02-12T07:14:30.068Z,86.4
2018-02-12T07:15:30.731Z,86.4
2018-02-12T07:16:31.394Z,86.6
2018-02-12T07:17:32.054Z,85.7
2018-02-12T07:18:32.716Z,85.4
2018-02-12T07:19:33.378Z,85.1
2018-02-12T07:20:34.041Z,85.6
2018-02-12T07:21:34.704Z,86.1
2018-02-12T07:22:35.368Z,85.1
2018-02-12T07:23:36.031Z,85.1
2018-02-12T07:24:36.692Z,85.6
2018-02-12T07:25:37.356Z,85.9
2018-02-12T07:26:38.019Z,86.1
2018-02-12T07:27:38.681Z,86.2
2018-02-12T07:28:39.343Z,86.1
2018-02-12T07:29:40.009Z,86.4
2018-02-12T07:30:40.673Z,86.2
2018-02-12T07:31:41.335Z,86.0
2018-02-12T07:32:41.999Z,86.4
2018-02-12T07:33:42.668Z,86.3
2018-02-12T07:34:43.323Z,86.7
2018-02-12T07:35:43.987Z,86.5
2018-02-12T07:36:44.651Z,86.5
2018-02-12T07:37:45.315Z,87.1
2018-02-12T07:38:45.980Z,87.2
2018-02-12T07:39:46.642Z,87.0
2018-02-12T07:40:47.304Z,86.9
2018-02-12T07:41:47.967Z,87.3
2018-02-12T07:42:48.647Z,87.4
2018-02-12T07:43:49.336Z,87.0
2018-02-12T07:44:49.957Z,87.4
2018-02-12T07:45:50.619Z,88.0
2018-02-12T07:46:51.282Z,88.2
2018-02-12T07:47:51.944Z,88.2
2018-02-12T07:48:52.606Z,88.1
2018-02-12T07:49:53.269Z,88.1
2018-02-12T07:50:53.932Z,88.2
2018-02-12T07:51:54.595Z,88.4
2018-02-12T07:52:55.259Z,87.9
2018-02-12T07:53:55.922Z,87.5
2018-02-12T07:54:56.585Z,87.6
2018-02-12T07:55:57.249Z,86.9
2018-02-12T07:56:57.911Z,87.2
2018-02-12T07:57:58.579Z,87.0
2018-02-12T07:58:59.244Z,86.2
2018-02-12T07:59:59.906Z,85.5
2018-02-12T08:01:00.578Z,85.2
2018-02-12T08:02:01.236Z,85.0
2018-02-12T08:03:01.900Z,84.6
2018-02-12T08:04:02.566Z,83.9
2018-02-12T08:05:03.230Z,83.1
2018-02-12T08:06:03.894Z,82.9
2018-02-12T08:07:04.559Z,83.6
2018-02-12T08:08:05.223Z,83.2
2018-02-12T08:09:05.887Z,82.9
2018-02-12T08:10:06.551Z,83.2
2018-02-12T08:11:07.222Z,82.3
2018-02-12T08:12:07.941Z,82.3
2018-02-12T08:13:08.585Z,82.6
2018-02-12T08:14:09.251Z,82.2
2018-02-12T08:15:09.953Z,81.5
2018-02-12T08:16:10.617Z,81.6
2018-02-12T08:17:11.283Z,81.5
2018-02-12T08:18:11.949Z,81.4
2018-02-12T08:19:12.617Z,81.5
2018-02-12T08:20:13.280Z,81.0
2018-02-12T08:21:13.946Z,81.6
2018-02-12T08:22:14.610Z,81.3
2018-02-12T08:23:15.274Z,81.4
2018-02-12T08:24:16.241Z,81.5
2018-02-12T08:25:16.907Z,81.5
2018-02-12T08:26:17.573Z,81.1
2018-02-12T08:27:18.239Z,81.1
2018-02-12T08:28:18.904Z,81.0
2018-02-12T08:29:19.568Z,81.8
2018-02-12T08:30:20.231Z,81.5
2018-02-12T08:31:20.897Z,81.3
2018-02-12T08:32:21.564Z,81.5
2018-02-12T08:33:22.229Z,81.8
2018-02-12T08:34:22.893Z,81.6
2018-02-12T08:35:23.564Z,81.9
2018-02-12T08:36:24.261Z,82.1
2018-02-12T08:37:24.926Z,82.0
2018-02-12T08:38:25.592Z,82.5
2018-02-12T08:39:26.258Z,82.6
2018-02-12T08:40:26.922Z,82.4
2018-02-12T08:41:27.628Z,82.9
2018-02-12T08:42:28.293Z,83.0
2018-02-12T08:43:28.958Z,82.5
2018-02-12T08:44:29.622Z,82.4
2018-02-12T08:45:30.290Z,82.3
2018-02-12T08:46:30.954Z,82.5
2018-02-12T08:47:31.619Z,82.7
2018-02-12T08:48:32.286Z,82.1
2018-02-12T08:49:32.952Z,81.8
2018-02-12T08:50:33.615Z,81.4
2018-02-12T08:51:34.281Z,81.3
2018-02-12T08:52:34.948Z,81.1
2018-02-12T08:53:35.652Z,81.3
2018-02-12T08:54:36.318Z,81.0
2018-02-12T08:55:36.987Z,80.6
2018-02-12T08:56:37.649Z,80.7
2018-02-12T08:57:38.314Z,80.4
2018-02-12T08:58:38.981Z,80.8
2018-02-12T08:59:39.695Z,80.7
2018-02-12T09:00:40.361Z,80.2
2018-02-12T09:01:41.027Z,80.4
2018-02-12T09:02:41.692Z,80.7
2018-02-12T09:03:42.359Z,81.4
2018-02-12T09:04:43.326Z,80.4
2018-02-12T09:05:43.992Z,80.6
2018-02-12T09:06:44.658Z,80.3
2018-02-12T09:07:45.324Z,80.4
2018-02-12T09:08:45.992Z,80.9
2018-02-12T09:09:46.706Z,81.0
2018-02-12T09:10:47.372Z,80.4
2018-02-12T09:11:48.038Z,80.1
2018-02-12T09:12:48.702Z,79.9
2018-02-12T09:13:49.370Z,80.6
2018-02-12T09:14:50.032Z,80.6
2018-02-12T09:15:50.702Z,81.0
2018-02-12T09:16:51.405Z,81.0
2018-02-12T09:17:52.067Z,80.8
2018-02-12T09:18:52.733Z,80.6
2018-02-12T09:19:53.450Z,80.8
2018-02-12T09:20:54.115Z,80.9
2018-02-12T09:21:54.781Z,81.0
2018-02-12T09:22:55.448Z,80.1
2018-02-12T09:23:56.114Z,79.7
2018-02-12T09:24:56.781Z,79.6
2018-02-12T09:25:57.446Z,79.1
2018-02-12T09:26:58.149Z,78.9
2018-02-12T09:27:58.818Z,78.1
2018-02-12T09:28:59.485Z,78.1
2018-02-12T09:30:00.150Z,78.0
2018-02-12T09:31:00.816Z,77.9
2018-02-12T09:32:01.511Z,75.9
2018-02-12T09:33:02.148Z,76.6
2018-02-12T09:34:02.817Z,76.9
2018-02-12T09:35:03.485Z,76.2
2018-02-12T09:36:04.190Z,76.0
2018-02-12T09:37:04.854Z,75.4
2018-02-12T09:38:05.521Z,75.0
2018-02-12T09:39:06.188Z,74.7
2018-02-12T09:40:07.705Z,74.2
2018-02-12T09:41:08.373Z,74.7
2018-02-12T09:42:09.040Z,74.7
2018-02-12T09:43:09.706Z,74.5
2018-02-12T09:44:10.374Z,74.4
2018-02-12T09:45:11.340Z,74.0
2018-02-12T09:46:12.006Z,74.2
2018-02-12T09:47:12.674Z,74.0
2018-02-12T09:48:13.341Z,73.4
2018-02-12T09:49:14.008Z,73.7
2018-02-12T09:50:14.725Z,73.4
2018-02-12T09:51:15.391Z,73.2
2018-02-12T09:52:16.057Z,73.2
2018-02-12T09:53:16.725Z,73.3
2018-02-12T09:54:17.392Z,73.3
2018-02-12T09:55:18.061Z,73.3
2018-02-12T09:56:18.767Z,73.3
2018-02-12T09:57:19.433Z,73.3
2018-02-12T09:58:20.100Z,73.3
2018-02-12T09:59:20.769Z,73.4
2018-02-12T10:00:21.437Z,72.8
2018-02-12T10:01:22.103Z,73.2
2018-02-12T10:02:22.771Z,73.1
2018-02-12T10:03:23.437Z,73.1
2018-02-12T10:04:24.141Z,73.4
2018-02-12T10:05:24.818Z,74.0
2018-02-12T10:06:25.481Z,73.6
2018-02-12T10:07:26.144Z,73.2
2018-02-12T10:08:26.814Z,73.3
2018-02-12T10:09:27.515Z,73.1
2018-02-12T10:10:28.182Z,73.5
2018-02-12T10:11:28.849Z,72.4
2018-02-12T10:12:29.515Z,72.6
2018-02-12T10:13:30.184Z,73.1
2018-02-12T10:14:30.851Z,72.0
2018-02-12T10:15:31.520Z,72.3
2018-02-12T10:16:32.224Z,72.4
2018-02-12T10:17:32.894Z,72.1
2018-02-12T10:18:33.561Z,72.3
2018-02-12T10:19:34.229Z,72.9
2018-02-12T10:20:34.934Z,72.6
2018-02-12T10:21:35.563Z,72.4
2018-02-12T10:22:36.231Z,72.8
2018-02-12T10:23:36.899Z,72.8
2018-02-12T10:24:37.565Z,72.9
2018-02-12T10:25:38.272Z,72.9
2018-02-12T10:26:38.940Z,72.6
2018-02-12T10:27:39.607Z,72.7
2018-02-12T10:28:40.273Z,72.8
2018-02-12T10:29:40.942Z,73.0
2018-02-12T10:30:41.610Z,72.6
2018-02-12T10:31:42.281Z,72.6
2018-02-12T10:32:42.948Z,72.4
2018-02-12T10:33:43.611Z,73.1
2018-02-12T10:34:44.276Z,72.8
2018-02-12T10:35:44.943Z,73.7
2018-02-12T10:36:45.608Z,73.8
2018-02-12T10:37:46.274Z,74.2
2018-02-12T10:38:46.940Z,75.0
2018-02-12T10:39:47.608Z,75.8
2018-02-12T10:40:48.275Z,76.3
2018-02-12T10:41:48.943Z,76.8
2018-02-12T10:42:49.609Z,77.4
2018-02-12T10:43:50.273Z,78.2
2018-02-12T10:44:50.940Z,79.5
2018-02-12T10:45:51.609Z,80.9
2018-02-12T10:46:52.276Z,80.9
2018-02-12T10:47:52.940Z,81.4
2018-02-12T10:48:53.645Z,82.6
2018-02-12T10:49:54.312Z,82.9
2018-02-12T10:50:54.977Z,83.3
2018-02-12T10:51:55.643Z,83.9
2018-02-12T10:52:56.311Z,84.5
2018-02-12T10:53:56.977Z,84.5
2018-02-12T10:54:57.647Z,84.8
2018-02-12T10:55:58.308Z,85.7
2018-02-12T10:56:58.973Z,87.4
2018-02-12T10:57:59.638Z,86.9
2018-02-12T10:59:00.303Z,86.5
2018-02-12T11:00:00.969Z,87.9
2018-02-12T11:01:01.635Z,87.6
2018-02-12T11:02:02.301Z,87.7
2018-02-12T11:03:02.967Z,88.3
2018-02-12T11:04:03.632Z,89.1
2018-02-12T11:05:04.296Z,88.6
2018-02-12T11:06:04.961Z,89.1
2018-02-12T11:07:05.655Z,89.0
2018-02-12T11:08:06.320Z,87.8
2018-02-12T11:09:07.022Z,87.2
2018-02-12T11:10:07.686Z,87.0
2018-02-12T11:11:08.359Z,86.8
2018-02-12T11:12:09.019Z,86.6
2018-02-12T11:13:09.685Z,86.2
2018-02-12T11:14:10.352Z,85.6
2018-02-12T11:15:11.019Z,85.5
2018-02-12T11:16:11.686Z,85.7
2018-02-12T11:17:12.353Z,86.0
2018-02-12T11:18:13.019Z,85.6
2018-02-12T11:19:13.685Z,84.6
2018-02-12T11:20:14.350Z,83.6
2018-02-12T11:21:15.019Z,83.4
2018-02-12T11:22:15.720Z,82.9
2018-02-12T11:23:16.387Z,82.7
2018-02-12T11:24:17.055Z,82.8
2018-02-12T11:25:17.720Z,82.2
2018-02-12T11:26:18.386Z,81.9
2018-02-12T11:27:19.092Z,81.5
2018-02-12T11:28:19.756Z,81.8
2018-02-12T11:29:20.425Z,81.6
2018-02-12T11:30:21.092Z,81.1
2018-02-12T11:31:21.758Z,81.4
2018-02-12T11:32:22.425Z,81.1
2018-02-12T11:33:23.092Z,81.6
2018-02-12T11:34:23.757Z,80.9
2018-02-12T11:35:24.424Z,81.0
2018-02-12T11:36:25.092Z,80.8
2018-02-12T11:37:25.758Z,80.7
2018-02-12T11:38:26.424Z,80.1
2018-02-12T11:39:27.092Z,80.1
2018-02-12T11:40:27.757Z,80.9
2018-02-12T11:41:28.723Z,81.2
2018-02-12T11:42:29.392Z,81.0
2018-02-12T11:43:30.095Z,80.1
2018-02-12T11:44:30.725Z,79.7
2018-02-12T11:45:31.402Z,79.0
2018-02-12T11:46:32.059Z,79.0
2018-02-12T11:47:32.725Z,79.1
2018-02-12T11:48:33.393Z,79.3
2018-02-12T11:49:34.060Z,78.5
2018-02-12T11:50:34.727Z,78.8
2018-02-12T11:51:35.394Z,78.2
2018-02-12T11:52:36.098Z,77.8
2018-02-12T11:53:36.726Z,77.2
2018-02-12T11:54:37.395Z,76.1
2018-02-12T11:55:38.063Z,77.1
2018-02-12T11:56:38.767Z,76.9
2018-02-12T11:57:39.434Z,76.4
2018-02-12T11:58:40.101Z,76.3
2018-02-12T11:59:40.768Z,76.3
2018-02-12T12:00:41.437Z,76.1
2018-02-12T12:01:42.106Z,76.5
2018-02-12T12:02:42.809Z,76.1
2018-02-12T12:03:43.479Z,75.7
2018-02-12T12:04:44.144Z,76.1
2018-02-12T12:05:44.810Z,75.6
2018-02-12T12:06:45.514Z,75.1
2018-02-12T12:07:46.144Z,74.1
2018-02-12T12:08:46.814Z,75.2
2018-02-12T12:09:47.480Z,74.7
2018-02-12T12:10:48.186Z,74.0
2018-02-12T12:11:48.853Z,74.1
2018-02-12T12:12:49.521Z,74.0
2018-02-12T12:13:50.188Z,73.8
2018-02-12T12:14:50.856Z,74.1
2018-02-12T12:15:51.531Z,73.7
2018-02-12T12:16:52.192Z,73.3
2018-02-12T12:17:52.861Z,72.9
2018-02-12T12:18:53.527Z,72.7
2018-02-12T12:19:54.195Z,71.5
2018-02-12T12:20:54.860Z,72.0
2018-02-12T12:21:55.529Z,71.8
2018-02-12T12:22:56.195Z,71.5
2018-02-12T12:23:56.863Z,71.4
2018-02-12T12:24:57.531Z,70.8
2018-02-12T12:25:58.196Z,70.4
2018-02-12T12:26:58.863Z,70.6
2018-02-12T12:27:59.536Z,70.3
2018-02-12T12:29:00.197Z,70.5
2018-02-12T12:30:00.864Z,70.7
2018-02-12T12:31:01.531Z,71.2
2018-02-12T12:32:02.196Z,70.9
2018-02-12T12:33:02.861Z,71.1
2018-02-12T12:34:03.517Z,71.1
2018-02-12T12:35:04.182Z,71.7
2018-02-12T12:36:04.849Z,72.0
2018-02-12T12:37:05.555Z,72.1
2018-02-12T12:38:06.226Z,72.4
2018-02-12T12:39:06.884Z,72.9
2018-02-12T12:40:07.549Z,72.8
2018-02-12T12:41:08.255Z,73.5
2018-02-12T12:42:09.006Z,72.9
2018-02-12T12:43:09.672Z,72.9
2018-02-12T12:44:10.336Z,72.2
2018-02-12T12:45:11.004Z,72.9
2018-02-12T12:46:11.682Z,72.7
2018-02-12T12:47:12.334Z,73.2
2018-02-12T12:48:12.999Z,73.5
2018-02-12T12:49:13.665Z,74.0
2018-02-12T12:50:14.367Z,74.5
2018-02-12T12:51:15.031Z,74.6
2018-02-12T12:52:15.695Z,74.1
2018-02-12T12:53:16.363Z,74.3
2018-02-12T12:54:17.030Z,74.0
2018-02-12T12:55:17.697Z,74.2
2018-02-12T12:56:18.363Z,74.5
2018-02-12T12:57:19.029Z,74.6
2018-02-12T12:58:19.694Z,73.9
2018-02-12T12:59:20.362Z,72.9
2018-02-12T13:00:21.028Z,72.9
2018-02-12T13:01:21.694Z,73.6
2018-02-12T13:02:22.360Z,74.1
2018-02-12T13:03:23.026Z,74.0
2018-02-12T13:04:23.692Z,73.5
2018-02-12T13:05:24.360Z,73.0
2018-02-12T13:06:25.026Z,73.6
2018-02-12T13:07:25.693Z,72.8
2018-02-12T13:08:26.360Z,72.9
2018-02-12T13:09:27.027Z,73.3
2018-02-12T13:10:27.697Z,73.2
2018-02-12T13:11:28.401Z,72.1
2018-02-12T13:12:29.068Z,71.2
2018-02-12T13:13:29.735Z,69.7
2018-02-12T13:14:30.402Z,69.2
2018-02-12T13:15:31.070Z,69.0
2018-02-12T13:16:31.737Z,67.3
2018-02-12T13:17:32.407Z,66.3
2018-02-12T13:18:33.072Z,64.3
2018-02-12T13:19:33.740Z,64.2
2018-02-12T13:20:34.408Z,64.2
2018-02-12T13:21:35.075Z,64.1
2018-02-12T13:22:35.742Z,62.9
2018-02-12T13:23:36.411Z,62.3
2018-02-12T13:24:37.080Z,62.0
2018-02-12T13:25:37.747Z,62.6